createdAt,value
2023-01-23T00:01:27.957Z,5.40
2023-01-23T00:03:56.045Z,5.50
2023-01-23T00:06:23.936Z,5.60
2023-01-23T00:08:51.283Z,6.60
2023-01-23T00:11:23.483Z,6.60
2023-01-23T00:13:51.232Z,6.20
2023-01-23T00:16:20.304Z,4.90
2023-01-23T00:18:48.696Z,5.30
2023-01-23T00:21:20.741Z,5.80
2023-01-23T00:23:53.204Z,5.80
2023-01-23T00:26:28.866Z,5.40
2023-01-23T00:28:59.277Z,5.10
2023-01-23T00:31:33.913Z,4.90
2023-01-23T00:34:09.320Z,4.80
2023-01-23T00:36:40.705Z,5.80
2023-01-23T00:39:20.860Z,5.00
2023-01-23T00:41:51.228Z,5.80
2023-01-23T00:44:21.871Z,5.50
2023-01-23T00:46:52.826Z,4.50
2023-01-23T00:49:24.668Z,4.80
2023-01-23T00:51:56.851Z,5.30
2023-01-23T00:54:26.857Z,5.10
2023-01-23T00:56:57.832Z,6.10
2023-01-23T00:59:28.829Z,6.20
2023-01-23T01:01:59.825Z,4.70
2023-01-23T01:04:30.954Z,5.00
2023-01-23T01:07:02.798Z,5.10
2023-01-23T01:09:33.929Z,5.10
2023-01-23T01:12:04.304Z,5.30
2023-01-23T01:14:34.842Z,5.30
2023-01-23T01:24:30.322Z,5.10
2023-01-23T01:26:57.476Z,5.20
2023-01-23T01:29:24.618Z,4.90
2023-01-23T01:31:51.828Z,4.80
2023-01-23T01:34:20.681Z,4.40
2023-01-23T01:36:49.445Z,5.00
2023-01-23T01:39:16.699Z,5.10
2023-01-23T01:41:43.949Z,4.90
2023-01-23T01:44:18.888Z,4.30
2023-01-23T01:46:47.119Z,5.50
2023-01-23T01:49:20.041Z,4.70
2023-01-23T01:51:53.552Z,4.50
2023-01-23T01:54:29.292Z,4.00
2023-01-23T01:57:01.288Z,4.40
2023-01-23T01:59:31.292Z,3.90
2023-01-23T02:02:05.330Z,5.10
2023-01-23T02:04:37.351Z,4.50
2023-01-23T02:07:14.940Z,4.10
2023-01-23T02:09:42.603Z,3.80
2023-01-23T02:12:09.752Z,3.60
2023-01-23T02:14:36.908Z,3.90
2023-01-23T02:17:04.368Z,4.70
2023-01-23T02:19:44.225Z,4.80
2023-01-23T02:22:18.829Z,4.20
2023-01-23T02:25:11.681Z,4.00
2023-01-23T02:27:38.945Z,3.10
2023-01-23T02:30:08.142Z,3.80
2023-01-23T02:32:38.248Z,3.30
2023-01-23T02:35:10.884Z,4.70
2023-01-23T02:37:38.083Z,4.70
2023-01-23T02:40:06.985Z,3.70
2023-01-23T02:42:34.738Z,4.80
2023-01-23T02:45:02.408Z,3.50
2023-01-23T02:47:29.900Z,4.50
2023-01-23T02:49:57.529Z,3.70
2023-01-23T02:52:24.970Z,3.70
2023-01-23T02:54:52.227Z,3.80
2023-01-23T02:57:19.471Z,4.10
2023-01-23T03:00:05.279Z,3.90
2023-01-23T03:02:34.968Z,3.60
2023-01-23T03:05:02.121Z,3.20
2023-01-23T03:07:29.473Z,3.50
2023-01-23T03:09:56.624Z,2.90
2023-01-23T03:12:23.780Z,3.10
2023-01-23T03:14:55.116Z,3.90
2023-01-23T03:17:22.988Z,3.70
2023-01-23T03:19:50.449Z,3.40
2023-01-23T03:22:17.624Z,3.40
2023-01-23T03:24:45.151Z,4.30
2023-01-23T03:27:13.017Z,4.10
2023-01-23T03:30:01.909Z,3.00
2023-01-23T03:32:31.288Z,3.60
2023-01-23T03:34:59.667Z,3.70
2023-01-23T03:37:26.910Z,4.70
2023-01-23T03:40:13.410Z,2.70
2023-01-23T03:42:40.874Z,3.50
2023-01-23T03:45:10.282Z,3.50
2023-01-23T03:47:37.636Z,4.90
2023-01-23T03:50:07.054Z,4.70
2023-01-23T03:52:39.889Z,4.50
2023-01-23T03:55:08.083Z,3.20
2023-01-23T03:57:36.154Z,4.80
2023-01-23T04:00:26.756Z,5.20
2023-01-23T04:02:59.472Z,4.60
2023-01-23T04:05:26.691Z,5.60
2023-01-23T04:07:53.945Z,4.30
2023-01-23T04:10:21.392Z,4.50
2023-01-23T04:12:52.874Z,3.90
2023-01-23T04:15:20.426Z,3.70
2023-01-23T04:17:47.859Z,4.50
2023-01-23T04:20:15.119Z,4.30
2023-01-23T04:22:43.288Z,4.00
2023-01-23T04:25:10.451Z,4.90
2023-01-23T04:27:37.692Z,4.70
2023-01-23T04:30:05.678Z,4.80
2023-01-23T04:32:34.046Z,4.90
2023-01-23T04:35:01.490Z,4.40
2023-01-23T04:37:28.915Z,6.00
2023-01-23T04:39:57.036Z,5.70
2023-01-23T04:42:24.275Z,6.30
2023-01-23T04:45:00.342Z,4.80
2023-01-23T04:47:36.992Z,5.20
2023-01-23T04:50:08.850Z,5.80
2023-01-23T04:52:37.755Z,9.20
2023-01-23T04:55:08.293Z,6.60
2023-01-23T04:57:37.192Z,5.70
2023-01-23T05:00:17.410Z,6.90
2023-01-23T05:02:47.591Z,5.60
2023-01-23T05:05:23.921Z,6.30
2023-01-23T05:07:55.050Z,6.90
2023-01-23T05:10:25.784Z,5.80
2023-01-23T05:13:01.230Z,8.00
2023-01-23T05:15:30.957Z,7.20
2023-01-23T05:17:59.636Z,6.20
2023-01-23T05:20:29.804Z,7.30
2023-01-23T05:23:01.336Z,8.50
2023-01-23T05:25:47.609Z,10.20
2023-01-23T05:28:18.093Z,9.00
2023-01-23T05:30:49.593Z,10.00
2023-01-23T05:33:26.673Z,8.90
2023-01-23T05:36:11.732Z,8.50
2023-01-23T05:38:39.316Z,9.60
2023-01-23T05:41:06.451Z,11.00
2023-01-23T05:43:56.320Z,10.00
2023-01-23T05:46:36.379Z,9.70
2023-01-23T05:49:03.754Z,10.30
2023-01-23T05:51:34.166Z,10.30
2023-01-23T05:54:01.934Z,10.80
2023-01-23T05:56:29.498Z,8.50
2023-01-23T05:59:16.522Z,9.60
2023-01-23T06:01:49.785Z,8.30
2023-01-23T06:04:35.313Z,9.40
2023-01-23T06:07:17.583Z,9.00
2023-01-23T06:09:45.627Z,9.30
2023-01-23T06:12:12.802Z,9.40
2023-01-23T06:14:39.878Z,10.00
2023-01-23T06:17:07.347Z,8.80
2023-01-23T06:19:34.456Z,9.10
2023-01-23T06:22:01.615Z,9.80
2023-01-23T06:24:31.473Z,9.30
2023-01-23T06:27:00.274Z,8.20
2023-01-23T06:29:27.990Z,9.40
2023-01-23T06:31:55.155Z,13.20
2023-01-23T06:34:22.323Z,11.10
2023-01-23T06:36:55.928Z,11.00
2023-01-23T06:39:23.259Z,7.70
2023-01-23T06:41:50.795Z,14.20
2023-01-23T06:44:21.479Z,9.90
2023-01-23T06:46:51.020Z,9.40
2023-01-23T06:49:18.677Z,6.80
2023-01-23T06:51:47.257Z,10.80
2023-01-23T06:54:14.484Z,8.40
2023-01-23T06:56:42.035Z,8.50
2023-01-23T06:59:09.953Z,8.20
2023-01-23T07:01:37.387Z,9.50
2023-01-23T07:04:24.014Z,8.80
2023-01-23T07:06:51.557Z,7.40
2023-01-23T07:09:19.380Z,10.80
2023-01-23T07:11:52.296Z,16.90
2023-01-23T07:14:19.706Z,27.60
2023-01-23T07:16:47.944Z,19.50
2023-01-23T07:19:16.217Z,7.30
2023-01-23T07:21:43.644Z,12.00
2023-01-23T07:24:10.694Z,13.80
2023-01-23T07:26:37.885Z,15.80
2023-01-23T07:29:11.800Z,10.10
2023-01-23T07:31:39.020Z,10.00
2023-01-23T07:34:06.409Z,9.40
2023-01-23T07:36:33.555Z,9.20
2023-01-23T07:39:00.723Z,13.30
2023-01-23T07:41:27.895Z,13.10
2023-01-23T07:43:55.006Z,8.60
2023-01-23T07:46:23.908Z,8.80
2023-01-23T07:48:51.084Z,12.70
2023-01-23T07:51:18.626Z,10.00
2023-01-23T07:53:45.874Z,10.70
2023-01-23T07:56:13.703Z,71.90
2023-01-23T07:58:41.053Z,27.90
2023-01-23T08:01:12.369Z,24.50
2023-01-23T08:03:39.640Z,16.40
2023-01-23T08:06:07.137Z,11.50
2023-01-23T08:08:34.586Z,11.10
2023-01-23T08:11:05.336Z,22.40
2023-01-23T08:13:32.541Z,24.80
2023-01-23T08:16:00.117Z,10.20
2023-01-23T08:18:28.722Z,12.40
2023-01-23T08:20:56.443Z,20.10
2023-01-23T08:23:31.297Z,12.70
2023-01-23T08:25:59.896Z,17.40
2023-01-23T08:28:27.041Z,17.10
2023-01-23T08:30:54.531Z,13.00
2023-01-23T08:33:22.171Z,13.50
2023-01-23T08:35:52.478Z,12.10
2023-01-23T08:40:47.387Z,10.20
2023-01-23T08:43:14.733Z,20.10
2023-01-23T08:45:42.685Z,12.80
2023-01-23T08:48:10.522Z,15.00
2023-01-23T08:50:38.387Z,15.30
2023-01-23T08:53:05.494Z,14.20
2023-01-23T08:55:33.339Z,12.10
2023-01-23T08:58:00.637Z,12.80
2023-01-23T09:00:28.106Z,13.50
2023-01-23T09:02:55.278Z,15.10
2023-01-23T09:05:23.227Z,15.60
2023-01-23T09:07:50.893Z,15.70
2023-01-23T09:10:18.250Z,13.50
2023-01-23T09:12:45.735Z,13.60
2023-01-23T09:15:13.107Z,17.80
2023-01-23T09:17:40.610Z,16.80
2023-01-23T09:20:09.703Z,18.20
2023-01-23T09:22:37.354Z,17.70
2023-01-23T09:25:04.910Z,15.50
2023-01-23T09:27:31.923Z,16.00
2023-01-23T09:29:58.970Z,16.80
2023-01-23T09:32:26.469Z,25.90
2023-01-23T09:34:55.125Z,36.20
2023-01-23T09:37:22.730Z,21.30
2023-01-23T09:39:49.845Z,19.20
2023-01-23T09:42:22.576Z,14.70
2023-01-23T09:44:52.985Z,15.70
2023-01-23T09:50:00.759Z,19.70
2023-01-23T09:52:46.213Z,17.80
2023-01-23T09:55:41.436Z,14.20
2023-01-23T09:58:44.246Z,9.80
2023-01-23T10:01:14.701Z,14.60
2023-01-23T10:06:33.854Z,12.20
2023-01-23T10:09:19.540Z,8.80
2023-01-23T10:12:34.583Z,10.90
2023-01-23T10:15:27.541Z,11.10
2023-01-23T10:17:54.807Z,38.20
2023-01-23T10:20:52.911Z,12.10
2023-01-23T10:23:52.825Z,13.00
2023-01-23T10:26:26.536Z,14.10
2023-01-23T10:29:15.999Z,15.90
2023-01-23T10:31:52.288Z,16.60
2023-01-23T10:34:34.676Z,17.70
2023-01-23T10:37:22.725Z,21.00
2023-01-23T10:40:44.902Z,17.40
2023-01-23T10:43:17.300Z,19.10
2023-01-23T10:45:46.247Z,19.10
2023-01-23T10:48:49.104Z,20.50
2023-01-23T10:51:35.535Z,22.80
2023-01-23T10:54:06.144Z,15.80
2023-01-23T10:56:34.712Z,15.90
2023-01-23T10:59:02.190Z,15.30
2023-01-23T11:01:33.656Z,17.20
2023-01-23T11:04:15.384Z,15.50
2023-01-23T11:06:43.396Z,20.20
2023-01-23T11:09:20.182Z,16.70
2023-01-23T11:12:03.212Z,13.90
2023-01-23T11:14:31.389Z,12.80
2023-01-23T11:17:14.385Z,13.30
2023-01-23T11:19:41.740Z,16.10
2023-01-23T11:22:32.432Z,14.50
2023-01-23T11:27:30.434Z,14.60
2023-01-23T11:30:04.829Z,14.20
2023-01-23T11:32:33.953Z,12.50
2023-01-23T11:35:12.628Z,12.40
2023-01-23T11:37:40.344Z,13.00
2023-01-23T11:40:15.403Z,12.70
2023-01-23T11:42:43.246Z,12.30
2023-01-23T11:45:23.424Z,13.10
2023-01-23T11:48:02.474Z,12.00
2023-01-23T11:50:49.996Z,10.80
2023-01-23T11:53:42.053Z,10.40
2023-01-23T11:56:14.691Z,9.80
2023-01-23T11:58:55.156Z,10.70
2023-01-23T12:01:29.703Z,9.80
2023-01-23T12:04:22.640Z,11.90
2023-01-23T12:07:09.145Z,14.20
2023-01-23T12:09:48.871Z,19.40
2023-01-23T12:12:49.545Z,11.10
2023-01-23T12:15:43.950Z,10.30
2023-01-23T12:18:58.179Z,7.40
2023-01-23T12:21:44.500Z,8.90
2023-01-23T12:24:41.526Z,10.30
2023-01-23T12:27:36.802Z,11.30
2023-01-23T12:30:51.917Z,11.50
2023-01-23T12:33:43.720Z,9.40
2023-01-23T12:37:08.700Z,9.80
2023-01-23T12:40:08.590Z,10.90
2023-01-23T12:43:05.532Z,12.00
2023-01-23T12:45:35.545Z,10.60
2023-01-23T12:50:59.641Z,13.40
2023-01-23T12:53:33.520Z,9.80
2023-01-23T12:56:23.595Z,11.20
2023-01-23T13:05:01.932Z,12.30
2023-01-23T13:07:42.983Z,8.70
2023-01-23T13:18:01.682Z,11.40
2023-01-23T13:20:48.067Z,11.40
2023-01-23T13:23:20.583Z,11.10
2023-01-23T13:25:48.931Z,8.00
2023-01-23T13:28:45.133Z,9.10
2023-01-23T13:31:44.896Z,8.60
2023-01-23T13:34:16.817Z,8.40
2023-01-23T13:36:44.268Z,8.70
2023-01-23T13:39:17.986Z,8.60
2023-01-23T13:41:45.344Z,9.90
2023-01-23T13:44:40.986Z,7.80
2023-01-23T16:21:40.096Z,13.90
2023-01-23T16:24:19.875Z,12.10
2023-01-23T16:26:56.965Z,11.70
2023-01-23T16:29:29.482Z,12.90
2023-01-23T16:32:02.148Z,14.20
2023-01-23T16:34:31.159Z,12.90
2023-01-23T16:36:59.947Z,14.10
2023-01-23T16:39:32.850Z,11.50
2023-01-23T16:42:04.187Z,12.00
2023-01-23T16:47:22.225Z,14.00
2023-01-23T16:49:53.775Z,13.80
2023-01-23T16:52:23.908Z,14.00
2023-01-23T16:54:53.464Z,12.80
2023-01-23T16:57:22.296Z,12.20
2023-01-23T16:59:51.998Z,11.40
2023-01-23T17:02:30.732Z,13.10
2023-01-23T17:04:59.817Z,12.40
2023-01-23T17:07:28.626Z,12.70
2023-01-23T17:09:57.806Z,12.80
2023-01-23T17:12:28.023Z,12.40
2023-01-23T17:14:56.939Z,11.20
2023-01-23T17:17:32.098Z,12.00
2023-01-23T17:20:01.720Z,12.90
2023-01-23T17:22:55.031Z,13.40
2023-01-23T17:25:27.408Z,13.60
2023-01-23T17:28:11.863Z,15.60
2023-01-23T17:30:42.612Z,12.90
2023-01-23T17:33:20.864Z,12.50
2023-01-23T17:35:58.806Z,13.50
2023-01-23T17:38:31.388Z,12.60
2023-01-23T17:41:00.066Z,15.30
2023-01-23T17:43:29.708Z,15.00
2023-01-23T17:45:58.394Z,24.00
2023-01-23T17:48:31.968Z,14.00
2023-01-23T17:51:00.686Z,12.90
2023-01-23T17:53:30.983Z,11.90
2023-01-23T17:55:59.966Z,12.00
2023-01-23T17:58:30.490Z,13.20
2023-01-23T18:01:00.756Z,16.00
2023-01-23T18:03:29.705Z,20.60
2023-01-23T18:05:59.111Z,23.50
2023-01-23T18:08:27.921Z,23.70
2023-01-23T18:11:01.534Z,24.70
2023-01-23T18:13:36.228Z,21.20
2023-01-23T18:16:20.916Z,20.70
2023-01-23T18:18:53.319Z,22.40
2023-01-23T18:21:22.455Z,23.30
2023-01-23T18:23:53.232Z,25.40
2023-01-23T18:26:44.128Z,27.90
2023-01-23T18:29:45.655Z,30.50
2023-01-23T18:32:31.130Z,27.90
2023-01-23T18:35:21.664Z,21.20
2023-01-23T18:38:25.434Z,22.30
2023-01-23T18:41:12.985Z,24.40
2023-01-23T18:43:50.866Z,21.50
2023-01-23T18:46:21.292Z,22.00
2023-01-23T18:48:51.121Z,23.20
2023-01-23T18:51:41.643Z,21.60
2023-01-23T18:54:25.453Z,16.20
2023-01-23T18:57:14.915Z,16.40
2023-01-23T18:59:58.976Z,17.20
2023-01-23T19:02:44.134Z,16.70
2023-01-23T19:05:16.208Z,16.20
2023-01-23T19:07:47.070Z,16.90
2023-01-23T19:10:21.489Z,15.80
2023-01-23T19:12:59.852Z,15.10
2023-01-23T19:15:56.887Z,15.80
2023-01-23T19:18:39.840Z,14.20
2023-01-23T19:21:29.722Z,13.90
2023-01-23T19:24:07.174Z,13.60
2023-01-23T19:26:41.056Z,14.30
2023-01-23T19:29:25.811Z,14.20
2023-01-23T19:32:06.040Z,13.20
2023-01-23T19:34:36.462Z,14.80
2023-01-23T19:37:07.682Z,14.50
2023-01-23T19:39:38.918Z,16.40
2023-01-23T19:42:14.068Z,18.10
2023-01-23T19:44:44.825Z,18.10
2023-01-23T19:47:16.711Z,17.50
2023-01-23T19:49:45.882Z,18.80
2023-01-23T19:52:14.796Z,14.40
2023-01-23T19:54:44.389Z,15.40
2023-01-23T19:57:14.865Z,16.20
2023-01-23T19:59:44.919Z,15.90
2023-01-23T20:02:19.778Z,16.10
2023-01-23T20:04:49.670Z,15.30
2023-01-23T20:07:18.680Z,16.60
2023-01-23T20:09:49.527Z,16.60
2023-01-23T20:12:21.772Z,16.00
2023-01-23T20:14:52.870Z,12.90
2023-01-23T20:19:53.767Z,13.60
2023-01-23T20:22:23.599Z,14.20
2023-01-23T20:24:52.158Z,15.70
2023-01-23T20:27:21.476Z,14.10
2023-01-23T20:29:53.860Z,15.40
2023-01-23T20:32:22.741Z,13.00
2023-01-23T20:34:54.920Z,14.00
2023-01-23T20:37:24.988Z,15.10
2023-01-23T20:39:56.808Z,15.50
2023-01-23T20:42:25.971Z,15.80
2023-01-23T20:44:57.006Z,15.30
2023-01-23T20:47:32.547Z,14.60
2023-01-23T20:50:02.878Z,15.60
2023-01-23T20:52:50.304Z,14.10
2023-01-23T20:55:19.093Z,14.20
2023-01-23T20:58:06.521Z,14.60
2023-01-23T21:00:37.875Z,13.30
2023-01-23T21:03:07.001Z,12.60
2023-01-23T21:05:36.567Z,15.30
2023-01-23T21:08:07.296Z,13.10
2023-01-23T21:10:36.597Z,12.80
2023-01-23T21:13:08.205Z,12.70
2023-01-23T21:15:37.260Z,12.30
2023-01-23T21:18:05.732Z,11.60
2023-01-23T21:20:35.952Z,12.80
2023-01-23T21:23:04.642Z,12.50
2023-01-23T21:25:35.875Z,9.10
2023-01-23T21:28:04.564Z,12.30
2023-01-23T21:30:33.406Z,16.40
2023-01-23T21:33:02.244Z,11.80
2023-01-23T21:35:31.976Z,11.80
2023-01-23T21:38:04.430Z,11.70
2023-01-23T21:40:34.203Z,8.50
2023-01-23T21:43:03.741Z,10.40
2023-01-23T21:45:32.542Z,8.80
2023-01-23T21:48:01.217Z,9.10
2023-01-23T21:50:30.735Z,8.50
2023-01-23T21:53:01.299Z,9.10
2023-01-23T21:55:32.700Z,9.30
2023-01-23T21:58:01.385Z,8.20
2023-01-23T22:00:49.020Z,8.50
2023-01-23T22:03:17.698Z,8.40
2023-01-23T22:05:46.895Z,8.40
2023-01-23T22:08:15.277Z,7.90
2023-01-23T22:10:43.960Z,8.50
2023-01-23T22:13:13.465Z,8.70
2023-01-23T22:15:42.068Z,7.90
2023-01-23T22:18:11.245Z,8.30
2023-01-23T22:20:40.045Z,8.80
2023-01-23T22:23:08.614Z,8.70
2023-01-23T22:25:37.815Z,8.30
2023-01-23T22:28:06.601Z,8.40
2023-01-23T22:30:36.214Z,8.00
2023-01-23T22:33:04.880Z,7.70
2023-01-23T22:35:39.350Z,9.40
2023-01-23T22:38:08.725Z,7.90
2023-01-23T22:40:38.537Z,9.30
2023-01-23T22:43:07.628Z,8.00
2023-01-23T22:45:37.132Z,8.60
2023-01-23T22:48:06.162Z,21.30
2023-01-23T22:50:34.501Z,9.80
2023-01-23T22:53:03.494Z,8.80
2023-01-23T22:55:32.429Z,9.00
2023-01-23T22:58:00.892Z,8.10
2023-01-23T23:00:29.655Z,8.50
2023-01-23T23:02:58.338Z,7.40
2023-01-23T23:05:27.023Z,8.70
2023-01-23T23:07:57.582Z,7.50
2023-01-23T23:10:26.343Z,13.20
2023-01-23T23:12:55.128Z,9.00
2023-01-23T23:15:23.924Z,7.90
2023-01-23T23:17:52.620Z,9.20
2023-01-23T23:20:22.412Z,7.80
2023-01-23T23:22:51.165Z,7.80
2023-01-23T23:25:20.054Z,6.90
2023-01-23T23:27:48.884Z,7.00
2023-01-23T23:30:17.872Z,8.30
2023-01-23T23:32:47.068Z,7.80
2023-01-23T23:35:15.879Z,6.80
2023-01-23T23:37:44.547Z,8.30
2023-01-23T23:40:13.231Z,7.60
2023-01-23T23:42:41.916Z,8.10
2023-01-23T23:45:11.431Z,7.70
2023-01-23T23:47:39.801Z,6.60
2023-01-23T23:50:09.511Z,7.60
2023-01-23T23:52:38.840Z,8.60
2023-01-23T23:55:08.125Z,9.00
2023-01-23T23:57:36.658Z,7.20
